createdAt,value
2017-09-08T00:00:07.428Z,0
2017-09-08T00:01:07.761Z,0
2017-09-08T00:01:52.869Z,0
2017-09-08T00:02:52.873Z,0
2017-09-08T00:04:07.496Z,0
2017-09-08T00:04:52.913Z,0
2017-09-08T00:05:53.229Z,0
2017-09-08T00:07:07.897Z,0
2017-09-08T00:07:53.303Z,0
2017-09-08T00:08:53.006Z,0
2017-09-08T00:09:53.337Z,0
2017-09-08T00:10:53.372Z,0
2017-09-08T00:11:53.379Z,0
2017-09-08T00:13:08.026Z,0
2017-09-08T00:13:53.093Z,0
2017-09-08T00:14:53.458Z,0
2017-09-08T00:15:53.147Z,0
2017-09-08T00:17:07.804Z,0
2017-09-08T00:17:53.219Z,0
2017-09-08T00:18:53.535Z,0
2017-09-08T00:20:08.183Z,0
2017-09-08T00:21:08.187Z,0
2017-09-08T00:21:53.302Z,0
2017-09-08T00:23:07.935Z,0
2017-09-08T00:23:53.664Z,0
2017-09-08T00:24:53.662Z,0
2017-09-08T00:25:53.710Z,0
2017-09-08T00:26:53.412Z,0
2017-09-08T00:27:53.754Z,0
2017-09-08T00:29:08.375Z,0
2017-09-08T00:29:53.850Z,0
2017-09-08T00:30:53.854Z,0
2017-09-08T00:31:53.828Z,0
2017-09-08T00:33:08.461Z,0
2017-09-08T00:33:53.572Z,0
2017-09-08T00:35:08.212Z,0
2017-09-08T00:35:53.897Z,0
2017-09-08T00:36:53.651Z,0
2017-09-08T00:37:53.951Z,0
2017-09-08T00:39:08.298Z,0
2017-09-08T00:39:54.010Z,0
2017-09-08T00:40:54.027Z,0
2017-09-08T00:41:54.045Z,0
2017-09-08T00:42:53.794Z,0
2017-09-08T00:44:08.716Z,0
2017-09-08T00:44:54.134Z,0
2017-09-08T00:45:54.144Z,0
2017-09-08T00:46:53.871Z,0
2017-09-08T00:48:08.786Z,0
2017-09-08T00:48:54.202Z,0
2017-09-08T00:50:08.849Z,0
2017-09-08T00:50:53.944Z,0
2017-09-08T00:51:54.299Z,0
2017-09-08T00:53:08.610Z,0
2017-09-08T00:53:54.334Z,0
2017-09-08T00:54:54.024Z,0
2017-09-08T00:55:54.052Z,0
2017-09-08T00:56:54.392Z,0
2017-09-08T00:57:54.415Z,0
2017-09-08T00:58:54.133Z,0
2017-09-08T00:59:54.443Z,0
2017-09-08T01:00:54.492Z,0
2017-09-08T01:04:08.860Z,0
2017-09-08T01:04:54.569Z,0
2017-09-08T01:05:54.593Z,0
2017-09-08T01:07:54.647Z,0
2017-09-08T01:08:54.682Z,0
2017-09-08T01:10:09.304Z,0
2017-09-08T01:10:54.691Z,0
2017-09-08T01:12:09.345Z,0
2017-09-08T01:12:54.739Z,0
2017-09-08T01:13:54.782Z,0
2017-09-08T01:14:54.782Z,0
2017-09-08T01:16:09.438Z,0
2017-09-08T01:16:54.844Z,0
2017-09-08T01:17:54.531Z,0
2017-09-08T01:20:09.191Z,0
2017-09-08T01:20:54.906Z,0
2017-09-08T01:21:54.626Z,0
2017-09-08T01:22:54.673Z,0
2017-09-08T01:23:54.683Z,0
2017-09-08T01:24:55.005Z,0
2017-09-08T01:25:55.028Z,0
2017-09-08T01:26:54.737Z,0
2017-09-08T01:27:54.834Z,0
2017-09-08T01:29:09.705Z,0
2017-09-08T01:30:55.142Z,0
2017-09-08T01:31:54.862Z,0
2017-09-08T01:33:09.503Z,0
2017-09-08T01:33:54.905Z,0
2017-09-08T01:34:55.225Z,0
2017-09-08T01:36:24.487Z,0
2017-09-08T01:36:55.269Z,0
2017-09-08T01:37:54.989Z,0
2017-09-08T01:38:55.349Z,0
2017-09-08T01:39:55.357Z,0
2017-09-08T01:41:09.990Z,0
2017-09-08T01:41:55.065Z,0
2017-09-08T01:42:55.405Z,0
2017-09-08T01:44:55.511Z,0
2017-09-08T01:45:55.460Z,0
2017-09-08T01:46:55.511Z,0
2017-09-08T01:47:55.521Z,0
2017-09-08T01:48:55.545Z,0
2017-09-08T01:49:55.593Z,0
2017-09-08T01:50:55.586Z,0
2017-09-08T01:52:09.904Z,0
2017-09-08T01:52:55.658Z,0
2017-09-08T01:53:55.657Z,0
2017-09-08T01:54:55.649Z,0
2017-09-08T01:55:55.703Z,0
2017-09-08T01:56:55.703Z,0
2017-09-08T01:57:55.742Z,0
2017-09-08T01:58:55.741Z,0
2017-09-08T01:59:55.784Z,0
2017-09-08T02:00:55.482Z,0
2017-09-08T02:01:55.507Z,0
2017-09-08T02:02:55.525Z,0
2017-09-08T02:03:55.886Z,0
2017-09-08T02:04:55.567Z,0
2017-09-08T02:05:55.930Z,0
2017-09-08T02:06:55.925Z,0
2017-09-08T02:08:10.572Z,0
2017-09-08T02:08:55.972Z,0
2017-09-08T02:09:55.705Z,0
2017-09-08T02:10:56.030Z,0
2017-09-08T02:11:56.039Z,0
2017-09-08T02:12:55.741Z,0
2017-09-08T02:13:56.094Z,0
2017-09-08T02:14:56.107Z,0
2017-09-08T02:15:56.136Z,0
2017-09-08T02:17:10.758Z,0
2017-09-08T02:17:56.176Z,0
2017-09-08T02:18:55.919Z,0
2017-09-08T02:19:56.242Z,0
2017-09-08T02:20:56.288Z,0
2017-09-08T02:21:56.241Z,0
2017-09-08T02:23:10.903Z,0
2017-09-08T02:24:56.043Z,0
2017-09-08T02:25:55.716Z,0
2017-09-08T02:27:10.997Z,0
2017-09-08T02:27:56.381Z,0
2017-09-08T02:28:56.100Z,0
2017-09-08T02:30:10.420Z,0
2017-09-08T02:30:56.470Z,0
2017-09-08T02:31:56.481Z,0
2017-09-08T02:32:56.507Z,0
2017-09-08T02:33:56.202Z,0
2017-09-08T02:34:56.222Z,0
2017-09-08T02:36:56.593Z,0
2017-09-08T02:37:56.304Z,0
2017-09-08T02:39:11.230Z,0
2017-09-08T02:39:56.357Z,0
2017-09-08T02:40:56.652Z,0
2017-09-08T02:41:56.689Z,0
2017-09-08T02:42:56.406Z,0
2017-09-08T02:43:56.747Z,0
2017-09-08T02:44:56.768Z,0
2017-09-08T02:45:56.469Z,0
2017-09-08T02:46:56.811Z,0
2017-09-08T02:48:11.110Z,0
2017-09-08T02:48:56.836Z,0
2017-09-08T02:49:56.557Z,0
2017-09-08T02:50:56.896Z,0
2017-09-08T02:51:56.618Z,0
2017-09-08T02:52:56.937Z,0
2017-09-08T02:53:56.964Z,0
2017-09-08T02:55:26.207Z,0
2017-09-08T02:55:56.990Z,0
2017-09-08T02:56:57.031Z,0
2017-09-08T02:57:57.027Z,0
2017-09-08T02:58:57.070Z,0
2017-09-08T03:00:57.104Z,0
2017-09-08T03:01:56.827Z,0
2017-09-08T03:02:57.155Z,0
2017-09-08T03:03:57.175Z,0
2017-09-08T03:04:57.180Z,0
2017-09-08T03:05:57.219Z,0
2017-09-08T03:06:57.226Z,0
2017-09-08T03:07:57.273Z,0
2017-09-08T03:08:57.283Z,0
2017-09-08T03:09:57.368Z,0
2017-09-08T03:11:11.623Z,0
2017-09-08T03:11:57.334Z,0
2017-09-08T03:13:11.681Z,0
2017-09-08T03:13:57.078Z,0
2017-09-08T03:14:57.107Z,0
2017-09-08T03:15:57.125Z,0
2017-09-08T03:16:57.155Z,0
2017-09-08T03:17:57.160Z,0
2017-09-08T03:19:57.543Z,0
2017-09-08T03:20:57.525Z,0
2017-09-08T03:21:57.580Z,0
2017-09-08T03:22:57.570Z,0
2017-09-08T03:24:12.225Z,0
2017-09-08T03:25:11.930Z,0
2017-09-08T03:26:12.270Z,0
2017-09-08T03:27:11.976Z,0
2017-09-08T03:27:57.699Z,0
2017-09-08T03:28:57.708Z,0
2017-09-08T03:29:57.735Z,0
2017-09-08T03:30:57.776Z,0
2017-09-08T03:31:57.791Z,0
2017-09-08T03:32:57.811Z,0
2017-09-08T03:33:57.833Z,0
2017-09-08T03:34:57.845Z,0
2017-09-08T03:35:57.865Z,0
2017-09-08T03:36:57.903Z,0
2017-09-08T03:37:57.895Z,0
2017-09-08T03:38:57.944Z,0
2017-09-08T03:39:57.967Z,0
2017-09-08T03:40:57.968Z,0
2017-09-08T03:41:57.681Z,0
2017-09-08T03:43:12.620Z,0
2017-09-08T03:43:58.064Z,0
2017-09-08T03:44:58.066Z,0
2017-09-08T03:46:12.715Z,0
2017-09-08T03:47:12.735Z,0
2017-09-08T03:47:58.129Z,0
2017-09-08T03:48:57.842Z,0
2017-09-08T03:49:58.190Z,0
2017-09-08T03:50:58.186Z,0
2017-09-08T03:51:58.224Z,0
2017-09-08T03:52:58.228Z,0
2017-09-08T03:54:12.886Z,0
2017-09-08T03:54:58.281Z,0
2017-09-08T03:55:58.322Z,0
2017-09-08T03:56:58.338Z,0
2017-09-08T03:58:12.706Z,0
2017-09-08T03:58:58.382Z,0
2017-09-08T03:59:58.422Z,0
2017-09-08T04:00:58.438Z,0
2017-09-08T04:01:58.437Z,0
2017-09-08T04:02:58.152Z,0
2017-09-08T04:03:58.557Z,4
2017-09-08T04:04:58.503Z,4
2017-09-08T04:05:58.545Z,4
2017-09-08T04:06:58.554Z,0
2017-09-08T04:07:58.574Z,4
2017-09-08T04:08:58.587Z,4
2017-09-08T04:09:58.287Z,4
2017-09-08T04:10:58.324Z,8
2017-09-08T04:11:58.666Z,8
2017-09-08T04:12:58.692Z,8
2017-09-08T04:13:58.695Z,8
2017-09-08T04:14:58.720Z,8
2017-09-08T04:15:58.755Z,8
2017-09-08T04:16:58.745Z,12
2017-09-08T04:17:58.798Z,12
2017-09-08T04:18:58.483Z,12
2017-09-08T04:19:58.850Z,16
2017-09-08T04:20:58.524Z,16
2017-09-08T04:21:58.903Z,20
2017-09-08T04:23:13.205Z,24
2017-09-08T04:23:58.917Z,24
2017-09-08T04:24:58.935Z,24
2017-09-08T04:25:58.945Z,28
2017-09-08T04:26:59.002Z,28
2017-09-08T04:27:59.013Z,36
2017-09-08T04:28:59.046Z,40
2017-09-08T04:30:13.652Z,48
2017-09-08T04:30:59.094Z,56
2017-09-08T04:31:59.087Z,64
2017-09-08T04:32:58.813Z,76
2017-09-08T04:34:13.756Z,92
2017-09-08T04:34:59.173Z,100
2017-09-08T04:36:13.811Z,124
2017-09-08T04:36:58.579Z,136
2017-09-08T04:37:59.237Z,152
2017-09-08T04:39:13.863Z,172
2017-09-08T04:40:13.879Z,184
2017-09-08T04:40:59.290Z,196
2017-09-08T04:41:59.006Z,204
2017-09-08T04:43:13.634Z,220
2017-09-08T04:44:13.981Z,228
2017-09-08T04:46:28.633Z,264
2017-09-08T04:46:59.435Z,268
2017-09-08T04:48:14.050Z,280
2017-09-08T04:48:59.475Z,284
2017-09-08T04:49:59.488Z,288
2017-09-08T04:51:14.112Z,296
2017-09-08T04:51:59.224Z,296
2017-09-08T04:53:14.183Z,296
2017-09-08T04:53:59.591Z,292
2017-09-08T04:54:59.270Z,292
2017-09-08T04:55:59.628Z,288
2017-09-08T04:56:59.626Z,280
2017-09-08T04:58:14.288Z,268
2017-09-08T04:58:59.685Z,260
2017-09-08T04:59:59.711Z,256
2017-09-08T05:00:59.430Z,252
2017-09-08T05:02:14.353Z,248
2017-09-08T05:02:59.802Z,252
2017-09-08T05:03:59.772Z,260
2017-09-08T05:04:59.509Z,256
2017-09-08T05:06:59.883Z,244
2017-09-08T05:07:59.889Z,252
2017-09-08T05:10:14.545Z,276
2017-09-08T05:12:00.275Z,324
2017-09-08T05:12:59.697Z,356
2017-09-08T05:13:59.992Z,396
2017-09-08T05:15:00.028Z,420
2017-09-08T05:16:00.060Z,452
2017-09-08T05:17:00.082Z,500
2017-09-08T05:18:14.725Z,548
2017-09-08T05:19:00.111Z,576
2017-09-08T05:21:00.156Z,596
2017-09-08T05:22:00.186Z,584
2017-09-08T05:22:59.902Z,572
2017-09-08T05:24:00.245Z,568
2017-09-08T05:25:14.877Z,580
2017-09-08T05:26:00.291Z,592
2017-09-08T05:27:00.325Z,604
2017-09-08T05:28:14.932Z,608
2017-09-08T05:29:14.956Z,596
2017-09-08T05:30:00.074Z,592
2017-09-08T05:31:00.391Z,580
2017-09-08T05:31:59.811Z,580
2017-09-08T05:33:15.039Z,592
2017-09-08T05:34:00.217Z,596
2017-09-08T05:35:15.086Z,596
2017-09-08T05:36:15.101Z,592
2017-09-08T05:37:00.532Z,592
2017-09-08T05:38:00.228Z,600
2017-09-08T05:39:00.259Z,616
2017-09-08T05:40:00.297Z,664
2017-09-08T05:41:00.291Z,764
2017-09-08T05:42:00.654Z,880
2017-09-08T05:43:00.340Z,1000
2017-09-08T05:44:00.071Z,1132
2017-09-08T05:45:00.383Z,1248
2017-09-08T05:46:00.408Z,1324
2017-09-08T05:47:00.437Z,1400
2017-09-08T05:48:00.784Z,1432
2017-09-08T05:49:00.803Z,1440
2017-09-08T05:50:00.807Z,1380
2017-09-08T05:51:00.836Z,1248
2017-09-08T05:52:00.850Z,1112
2017-09-08T05:53:15.501Z,988
2017-09-08T05:54:00.888Z,944
2017-09-08T05:55:00.940Z,904
2017-09-08T05:56:00.957Z,884
2017-09-08T05:57:00.955Z,864
2017-09-08T05:58:00.979Z,864
2017-09-08T05:59:01.292Z,888
2017-09-08T06:00:15.350Z,964
2017-09-08T06:01:01.046Z,1024
2017-09-08T06:02:01.093Z,1124
2017-09-08T06:03:00.787Z,1208
2017-09-08T06:04:01.145Z,1312
2017-09-08T06:05:15.751Z,1468
2017-09-08T06:06:01.182Z,1544
2017-09-08T06:07:01.192Z,1652
2017-09-08T06:08:01.206Z,1784
2017-09-08T06:09:01.236Z,1900
2017-09-08T06:10:01.266Z,1988
2017-09-08T06:11:01.268Z,2028
2017-09-08T06:12:15.928Z,2116
2017-09-08T06:13:01.001Z,2184
2017-09-08T06:14:15.970Z,2176
2017-09-08T06:15:01.356Z,2088
2017-09-08T06:16:01.391Z,1976
2017-09-08T06:17:01.095Z,1900
2017-09-08T06:18:01.441Z,1884
2017-09-08T06:19:01.477Z,1896
2017-09-08T06:20:01.168Z,1952
2017-09-08T06:21:16.124Z,1980
2017-09-08T06:22:16.123Z,1912
2017-09-08T06:23:16.156Z,1828
2017-09-08T06:24:01.265Z,1776
2017-09-08T06:25:16.211Z,1720
2017-09-08T06:27:01.326Z,1676
2017-09-08T06:28:01.872Z,1700
2017-09-08T06:29:01.661Z,1756
2017-09-08T06:30:01.704Z,1800
2017-09-08T06:31:01.725Z,1852
2017-09-08T06:32:01.773Z,1944
2017-09-08T06:33:16.069Z,2056
2017-09-08T06:34:01.801Z,2140
2017-09-08T06:35:01.803Z,2308
2017-09-08T06:36:16.474Z,2556
2017-09-08T06:37:16.486Z,2836
2017-09-08T06:38:01.877Z,3128
2017-09-08T06:39:01.903Z,3556
2017-09-08T06:40:16.540Z,3984
2017-09-08T06:41:01.926Z,4176
2017-09-08T06:42:01.953Z,4328
2017-09-08T06:43:01.680Z,4304
2017-09-08T06:44:02.022Z,4188
2017-09-08T06:45:01.717Z,3964
2017-09-08T06:46:02.049Z,3728
2017-09-08T06:48:16.712Z,3340
2017-09-08T06:49:02.108Z,3260
2017-09-08T06:50:01.823Z,3156
2017-09-08T06:51:02.186Z,3072
2017-09-08T06:52:02.189Z,3040
2017-09-08T06:53:16.827Z,3028
2017-09-08T06:54:02.235Z,3004
2017-09-08T06:55:02.299Z,3024
2017-09-08T06:56:02.263Z,3068
2017-09-08T06:57:02.304Z,3104
2017-09-08T06:58:02.325Z,3092
2017-09-08T06:59:02.345Z,3068
2017-09-08T07:00:02.373Z,3012
2017-09-08T07:01:02.401Z,2980
2017-09-08T07:02:01.946Z,3104
2017-09-08T07:03:17.049Z,3420
2017-09-08T07:04:02.247Z,3512
2017-09-08T07:05:02.734Z,3472
2017-09-08T07:06:02.506Z,3392
2017-09-08T07:07:02.533Z,3336
2017-09-08T07:08:17.156Z,3364
2017-09-08T07:09:02.673Z,3432
2017-09-08T07:10:02.691Z,3540
2017-09-08T07:11:02.610Z,3592
2017-09-08T07:12:02.655Z,3644
2017-09-08T07:13:02.661Z,3684
2017-09-08T07:14:17.313Z,3800
2017-09-08T07:15:02.707Z,3820
2017-09-08T07:16:02.739Z,3808
2017-09-08T07:17:02.746Z,3764
2017-09-08T07:18:17.744Z,3744
2017-09-08T07:19:02.491Z,3824
2017-09-08T07:20:02.923Z,4128
2017-09-08T07:21:02.528Z,4680
2017-09-08T07:22:02.895Z,5276
2017-09-08T07:23:02.892Z,5468
2017-09-08T07:24:17.539Z,5280
2017-09-08T07:25:02.422Z,5148
2017-09-08T07:26:03.157Z,5032
2017-09-08T07:27:02.982Z,4756
2017-09-08T07:28:02.380Z,4524
2017-09-08T07:29:03.173Z,4500
2017-09-08T07:30:02.801Z,4776
2017-09-08T07:31:03.084Z,5208
2017-09-08T07:32:03.095Z,5108
2017-09-08T07:33:03.274Z,4976
2017-09-08T07:34:02.828Z,4964
2017-09-08T07:35:02.858Z,4920
2017-09-08T07:36:17.805Z,4816
2017-09-08T07:37:03.218Z,4796
2017-09-08T07:38:03.241Z,4976
2017-09-08T07:39:03.254Z,5480
2017-09-08T07:40:17.893Z,6172
2017-09-08T07:41:18.105Z,6692
2017-09-08T07:42:03.415Z,7008
2017-09-08T07:43:03.365Z,7480
2017-09-08T07:44:03.483Z,7756
2017-09-08T07:46:03.109Z,7756
2017-09-08T07:47:03.454Z,7920
2017-09-08T07:48:03.197Z,7964
2017-09-08T07:49:03.271Z,8404
2017-09-08T07:50:03.302Z,8800
2017-09-08T07:52:03.571Z,9156
2017-09-08T07:53:18.203Z,8904
2017-09-08T07:54:18.220Z,8504
2017-09-08T07:55:03.329Z,8384
2017-09-08T07:56:18.264Z,8276
2017-09-08T07:57:03.685Z,8348
2017-09-08T07:58:03.492Z,8572
2017-09-08T07:59:03.837Z,8988
2017-09-08T08:00:03.435Z,9036
2017-09-08T08:01:03.766Z,9280
2017-09-08T08:02:03.800Z,9908
2017-09-08T08:03:03.609Z,10256
2017-09-08T08:04:03.842Z,10568
2017-09-08T08:05:03.343Z,10376
2017-09-08T08:06:03.734Z,10012
2017-09-08T08:07:04.011Z,9484
2017-09-08T08:08:03.615Z,9128
2017-09-08T08:09:04.123Z,9096
2017-09-08T08:10:18.753Z,9320
2017-09-08T08:11:04.121Z,9396
2017-09-08T08:12:18.691Z,9780
2017-09-08T08:13:18.694Z,10152
2017-09-08T08:14:04.090Z,10180
2017-09-08T08:15:03.790Z,10212
2017-09-08T08:16:03.857Z,10412
2017-09-08T08:17:18.765Z,9940
2017-09-08T08:18:04.272Z,9680
2017-09-08T08:19:04.313Z,9740
2017-09-08T08:20:04.253Z,9892
2017-09-08T08:21:04.414Z,9660
2017-09-08T08:22:04.282Z,9712
2017-09-08T08:23:03.674Z,9820
2017-09-08T08:24:18.941Z,9660
2017-09-08T08:26:04.387Z,9268
2017-09-08T08:27:04.398Z,9284
2017-09-08T08:28:19.046Z,9608
2017-09-08T08:29:04.140Z,9516
2017-09-08T08:30:04.481Z,10028
2017-09-08T08:31:04.501Z,9624
2017-09-08T08:32:04.418Z,8984
2017-09-08T08:34:04.270Z,7420
2017-09-08T08:36:04.311Z,6044
2017-09-08T08:37:04.653Z,5600
2017-09-08T08:38:04.649Z,5308
2017-09-08T08:39:04.389Z,5164
2017-09-08T08:40:04.716Z,5108
2017-09-08T08:41:04.432Z,5140
2017-09-08T08:42:04.451Z,5284
2017-09-08T08:43:19.494Z,5556
2017-09-08T08:44:04.832Z,5708
2017-09-08T08:47:04.890Z,6340
2017-09-08T08:48:04.905Z,6664
2017-09-08T08:49:04.620Z,7104
2017-09-08T08:50:04.340Z,7616
2017-09-08T08:51:05.148Z,8028
2017-09-08T08:52:05.192Z,8284
2017-09-08T08:53:05.228Z,8304
2017-09-08T08:54:04.768Z,8080
2017-09-08T08:55:04.776Z,7748
2017-09-08T08:56:04.789Z,7388
2017-09-08T08:57:05.129Z,7012
2017-09-08T08:58:05.241Z,6524
2017-09-08T08:59:05.286Z,5992
2017-09-08T09:00:05.202Z,5560
2017-09-08T09:01:05.378Z,5244
2017-09-08T09:02:05.240Z,5012
2017-09-08T09:03:04.986Z,4784
2017-09-08T09:04:05.610Z,4532
2017-09-08T09:05:20.089Z,4280
2017-09-08T09:06:05.350Z,4168
2017-09-08T09:07:05.062Z,4080
2017-09-08T09:08:05.549Z,4080
2017-09-08T09:09:05.114Z,4156
2017-09-08T09:11:05.145Z,4524
2017-09-08T09:12:05.602Z,4756
2017-09-08T09:13:05.203Z,4968
2017-09-08T09:14:05.228Z,5096
2017-09-08T09:15:20.290Z,5184
2017-09-08T09:16:20.193Z,5204
2017-09-08T09:17:05.590Z,5228
2017-09-08T09:18:05.812Z,5348
2017-09-08T09:19:05.629Z,5516
2017-09-08T09:20:05.462Z,5664
2017-09-08T09:21:20.410Z,5788
2017-09-08T09:24:20.404Z,5700
2017-09-08T09:25:05.919Z,5588
2017-09-08T09:26:05.210Z,5404
2017-09-08T09:27:06.082Z,5184
2017-09-08T09:28:20.599Z,4928
2017-09-08T09:29:19.912Z,4756
2017-09-08T09:30:05.922Z,4656
2017-09-08T09:31:20.582Z,4552
2017-09-08T09:32:06.015Z,4540
2017-09-08T09:34:05.824Z,4676
2017-09-08T09:35:06.067Z,4772
2017-09-08T09:36:06.065Z,4872
2017-09-08T09:37:05.798Z,4984
2017-09-08T09:38:20.748Z,5096
2017-09-08T09:39:20.460Z,5220
2017-09-08T09:40:06.036Z,5324
2017-09-08T09:41:05.879Z,5468
2017-09-08T09:42:05.934Z,5636
2017-09-08T09:43:06.238Z,5848
2017-09-08T09:44:06.283Z,6032
2017-09-08T09:45:06.301Z,6224
2017-09-08T09:46:06.320Z,6400
2017-09-08T09:47:20.941Z,6552
2017-09-08T09:48:06.384Z,6616
2017-09-08T09:49:06.092Z,6664
2017-09-08T09:50:06.281Z,6684
2017-09-08T09:51:06.679Z,6724
2017-09-08T09:52:20.575Z,6684
2017-09-08T09:53:06.571Z,6576
2017-09-08T09:54:06.502Z,6380
2017-09-08T09:55:06.338Z,6236
2017-09-08T09:57:06.609Z,5980
2017-09-08T09:58:21.228Z,5788
2017-09-08T09:59:06.643Z,5724
2017-09-08T10:00:06.867Z,5708
2017-09-08T10:01:06.375Z,5760
2017-09-08T10:02:06.825Z,5840
2017-09-08T10:03:21.341Z,6064
2017-09-08T10:04:06.465Z,6204
2017-09-08T10:05:06.786Z,6308
2017-09-08T10:06:06.826Z,6320
2017-09-08T10:07:06.938Z,6276
2017-09-08T10:08:06.859Z,6260
2017-09-08T10:09:06.892Z,6236
2017-09-08T10:10:07.021Z,6064
2017-09-08T10:11:06.712Z,5820
2017-09-08T10:12:06.947Z,5596
2017-09-08T10:13:07.083Z,5448
2017-09-08T10:14:06.709Z,5352
2017-09-08T10:15:07.015Z,5244
2017-09-08T10:17:07.298Z,4972
2017-09-08T10:18:21.713Z,4868
2017-09-08T10:19:07.223Z,4840
2017-09-08T10:20:07.263Z,4848
2017-09-08T10:21:21.901Z,4972
2017-09-08T10:22:07.207Z,5152
2017-09-08T10:23:07.228Z,5432
2017-09-08T10:25:06.968Z,6104
2017-09-08T10:26:07.313Z,6520
2017-09-08T10:27:21.996Z,6912
2017-09-08T10:29:07.461Z,7280
2017-09-08T10:30:07.412Z,7596
2017-09-08T10:31:22.020Z,7956
2017-09-08T10:32:07.419Z,8072
2017-09-08T10:33:07.557Z,8008
2017-09-08T10:34:07.492Z,7788
2017-09-08T10:35:07.518Z,7476
2017-09-08T10:36:22.139Z,7032
2017-09-08T10:37:07.558Z,6740
2017-09-08T10:38:07.278Z,6332
2017-09-08T10:39:07.295Z,5988
2017-09-08T10:40:07.645Z,5728
2017-09-08T10:41:07.652Z,5620
2017-09-08T10:42:07.719Z,5640
2017-09-08T10:43:07.806Z,5716
2017-09-08T10:44:22.242Z,5896
2017-09-08T10:45:07.749Z,6048
2017-09-08T10:46:07.463Z,6308
2017-09-08T10:47:07.838Z,6568
2017-09-08T10:48:07.820Z,6876
2017-09-08T10:49:07.860Z,7196
2017-09-08T10:50:22.498Z,7500
2017-09-08T10:52:07.605Z,7752
2017-09-08T10:53:07.839Z,7812
2017-09-08T10:54:07.666Z,7936
2017-09-08T10:56:22.655Z,8164
2017-09-08T10:57:08.041Z,8224
2017-09-08T10:58:08.082Z,8368
2017-09-08T10:59:08.093Z,8596
2017-09-08T11:00:22.741Z,8872
2017-09-08T11:01:07.841Z,8984
2017-09-08T11:02:08.173Z,9184
2017-09-08T11:03:08.352Z,9260
2017-09-08T11:04:22.942Z,9224
2017-09-08T11:05:22.863Z,9164
2017-09-08T11:06:22.575Z,9008
2017-09-08T11:07:08.289Z,8844
2017-09-08T11:08:08.005Z,8704
2017-09-08T11:09:08.349Z,8628
2017-09-08T11:10:08.457Z,8568
2017-09-08T11:11:08.387Z,8432
2017-09-08T11:12:08.428Z,8156
2017-09-08T11:13:08.540Z,7856
2017-09-08T11:14:08.456Z,7604
2017-09-08T11:15:08.589Z,7552
2017-09-08T11:16:08.518Z,7752
2017-09-08T11:17:08.555Z,8108
2017-09-08T11:18:08.682Z,8464
2017-09-08T11:19:23.221Z,8648
2017-09-08T11:20:08.010Z,8576
2017-09-08T11:21:08.653Z,8368
2017-09-08T11:22:23.288Z,8052
2017-09-08T11:23:08.740Z,7956
2017-09-08T11:24:08.718Z,7868
2017-09-08T11:25:23.374Z,7816
2017-09-08T11:26:23.389Z,7828
2017-09-08T11:27:08.893Z,7844
2017-09-08T11:28:08.610Z,7844
2017-09-08T11:29:08.930Z,7816
2017-09-08T11:31:09.001Z,7772
2017-09-08T11:32:08.694Z,7760
2017-09-08T11:33:08.946Z,7708
2017-09-08T11:34:08.662Z,7668
2017-09-08T11:36:09.021Z,7712
2017-09-08T11:37:08.414Z,7692
2017-09-08T11:38:23.830Z,7568
2017-09-08T11:39:23.704Z,7312
2017-09-08T11:40:08.807Z,7224
2017-09-08T11:41:09.154Z,7196
2017-09-08T11:42:09.262Z,7332
2017-09-08T11:43:09.216Z,7496
2017-09-08T11:44:09.315Z,7616
2017-09-08T11:45:09.233Z,7592
2017-09-08T11:46:08.963Z,7444
2017-09-08T11:47:09.404Z,7244
2017-09-08T11:48:09.207Z,7124
2017-09-08T11:49:09.553Z,7152
2017-09-08T11:50:09.159Z,7280
2017-09-08T11:51:09.392Z,7520
2017-09-08T11:52:09.117Z,7616
2017-09-08T11:53:24.058Z,7588
2017-09-08T11:54:09.578Z,7476
2017-09-08T11:56:09.206Z,7072
2017-09-08T11:57:09.552Z,6992
2017-09-08T11:58:09.367Z,6984
2017-09-08T11:59:10.009Z,6896
2017-09-08T12:00:09.620Z,6784
2017-09-08T12:01:09.539Z,6680
2017-09-08T12:02:09.771Z,6580
2017-09-08T12:03:09.891Z,6492
2017-09-08T12:06:09.897Z,6204
2017-09-08T12:07:09.493Z,6264
2017-09-08T12:08:09.916Z,6332
2017-09-08T12:09:09.952Z,6320
2017-09-08T12:10:10.123Z,6276
2017-09-08T12:12:10.039Z,6116
2017-09-08T12:13:10.062Z,6128
2017-09-08T12:14:09.662Z,6148
2017-09-08T12:15:10.458Z,6172
2017-09-08T12:17:10.038Z,6144
2017-09-08T12:18:24.691Z,6044
2017-09-08T12:19:09.784Z,5988
2017-09-08T12:20:09.613Z,5908
2017-09-08T12:21:10.154Z,5860
2017-09-08T12:22:09.763Z,5840
2017-09-08T12:23:09.892Z,5792
2017-09-08T12:24:10.397Z,5692
2017-09-08T12:25:24.563Z,5552
2017-09-08T12:26:09.754Z,5480
2017-09-08T12:27:10.303Z,5352
2017-09-08T12:28:10.115Z,5224
2017-09-08T12:29:10.402Z,5060
2017-09-08T12:30:10.523Z,4904
2017-09-08T12:31:25.021Z,4752
2017-09-08T12:32:10.126Z,4684
2017-09-08T12:33:10.541Z,4620
2017-09-08T12:34:10.576Z,4560
2017-09-08T12:35:10.380Z,4496
2017-09-08T12:36:10.215Z,4424
2017-09-08T12:37:10.441Z,4344
2017-09-08T12:38:09.947Z,4272
2017-09-08T12:39:10.585Z,4240
2017-09-08T12:40:10.312Z,4252
2017-09-08T12:41:25.272Z,4316
2017-09-08T12:42:10.769Z,4364
2017-09-08T12:43:10.485Z,4440
2017-09-08T12:44:10.718Z,4528
2017-09-08T12:46:10.297Z,4648
2017-09-08T12:47:10.833Z,4672
2017-09-08T12:48:10.818Z,4668
2017-09-08T12:49:10.984Z,4684
2017-09-08T12:50:10.917Z,4704
2017-09-08T12:51:10.906Z,4724
2017-09-08T12:52:11.132Z,4760
2017-09-08T12:53:10.945Z,4824
2017-09-08T12:54:10.655Z,4896
2017-09-08T12:55:11.004Z,4976
2017-09-08T12:56:11.024Z,5000
2017-09-08T12:57:25.357Z,4952
2017-09-08T12:58:11.313Z,4916
2017-09-08T12:59:11.252Z,4888
2017-09-08T13:01:11.136Z,4936
2017-09-08T13:02:11.323Z,4932
2017-09-08T13:04:11.231Z,4852
2017-09-08T13:05:11.229Z,4760
2017-09-08T13:06:11.371Z,4588
2017-09-08T13:07:11.487Z,4388
2017-09-08T13:08:25.627Z,4088
2017-09-08T13:09:10.811Z,3968
2017-09-08T13:10:11.362Z,3852
2017-09-08T13:11:11.398Z,3980
2017-09-08T13:12:10.791Z,4136
2017-09-08T13:13:26.317Z,4276
2017-09-08T13:14:11.623Z,4332
2017-09-08T13:15:11.490Z,4368
2017-09-08T13:16:11.628Z,4304
2017-09-08T13:17:11.480Z,4256
2017-09-08T13:18:25.873Z,4244
2017-09-08T13:19:11.586Z,4264
2017-09-08T13:20:11.715Z,4204
2017-09-08T13:21:11.800Z,4196
2017-09-08T13:22:12.048Z,4080
2017-09-08T13:23:11.802Z,3952
2017-09-08T13:24:11.951Z,3876
2017-09-08T13:25:11.886Z,3796
2017-09-08T13:26:11.870Z,3696
2017-09-08T13:27:11.797Z,3596
2017-09-08T13:28:26.435Z,3476
2017-09-08T13:29:11.538Z,3364
2017-09-08T13:30:11.958Z,3156
2017-09-08T13:31:11.872Z,2964
2017-09-08T13:32:12.057Z,2796
2017-09-08T13:34:11.952Z,2712
2017-09-08T13:35:11.983Z,2772
2017-09-08T13:36:12.019Z,2860
2017-09-08T13:37:11.734Z,3016
2017-09-08T13:38:12.250Z,3144
2017-09-08T13:39:12.078Z,3256
2017-09-08T13:40:11.807Z,3332
2017-09-08T13:41:12.524Z,3448
2017-09-08T13:42:12.319Z,3584
2017-09-08T13:43:12.192Z,3624
2017-09-08T13:44:26.830Z,3608
2017-09-08T13:45:12.522Z,3584
2017-09-08T13:46:12.033Z,3588
2017-09-08T13:47:11.768Z,3644
2017-09-08T13:48:12.093Z,3700
2017-09-08T13:49:12.432Z,3676
2017-09-08T13:50:12.059Z,3664
2017-09-08T13:51:12.488Z,3652
2017-09-08T13:52:12.089Z,3608
2017-09-08T13:53:27.045Z,3628
2017-09-08T13:54:12.459Z,3592
2017-09-08T13:55:12.666Z,3580
2017-09-08T13:56:12.751Z,3564
2017-09-08T13:58:12.435Z,3308
2017-09-08T13:59:12.565Z,3236
2017-09-08T14:00:27.239Z,3288
2017-09-08T14:01:27.238Z,3444
2017-09-08T14:02:27.372Z,3476
2017-09-08T14:03:12.679Z,3392
2017-09-08T14:04:12.892Z,3292
2017-09-08T14:05:12.400Z,3244
2017-09-08T14:06:12.756Z,3092
2017-09-08T14:07:12.780Z,2928
2017-09-08T14:08:12.494Z,2792
2017-09-08T14:09:27.429Z,2696
2017-09-08T14:10:27.245Z,2732
2017-09-08T14:11:12.447Z,2792
2017-09-08T14:12:12.056Z,2800
2017-09-08T14:13:12.604Z,2680
2017-09-08T14:14:12.821Z,2552
2017-09-08T14:15:27.259Z,2476
2017-09-08T14:16:27.609Z,2424
2017-09-08T14:17:13.012Z,2396
2017-09-08T14:18:12.712Z,2444
2017-09-08T14:19:13.156Z,2528
2017-09-08T14:20:12.555Z,2548
2017-09-08T14:21:12.478Z,2588
2017-09-08T14:22:12.506Z,2684
2017-09-08T14:23:13.154Z,2896
2017-09-08T14:24:13.186Z,3116
2017-09-08T14:25:13.303Z,3308
2017-09-08T14:26:13.071Z,3528
2017-09-08T14:27:13.347Z,3756
2017-09-08T14:28:12.649Z,3968
2017-09-08T14:29:13.304Z,4104
2017-09-08T14:30:13.211Z,4108
2017-09-08T14:31:13.037Z,4080
2017-09-08T14:32:27.992Z,4020